sensor_id;sensor_type;location;lat;lon;timestamp;P1;durP1;ratioP1;P2;durP2;ratioP2
19127;SDS011;9696;53.686;10.094;2023-11-21T00:02:12;13.97;;;6.97;;
19127;SDS011;9696;53.686;10.094;2023-11-21T00:04:43;15.03;;;7.77;;
19127;SDS011;9696;53.686;10.094;2023-11-21T00:07:13;12.57;;;6.53;;
19127;SDS011;9696;53.686;10.094;2023-11-21T00:09:45;13.60;;;7.80;;
19127;SDS011;9696;53.686;10.094;2023-11-21T00:12:14;13.07;;;7.47;;
19127;SDS011;9696;53.686;10.094;2023-11-21T00:14:51;21.17;;;8.80;;
19127;SDS011;9696;53.686;10.094;2023-11-21T00:17:24;17.40;;;7.67;;
19127;SDS011;9696;53.686;10.094;2023-11-21T00:20:07;14.50;;;8.03;;
19127;SDS011;9696;53.686;10.094;2023-11-21T00:22:40;15.47;;;7.50;;
19127;SDS011;9696;53.686;10.094;2023-11-21T00:25:10;16.03;;;8.00;;
19127;SDS011;9696;53.686;10.094;2023-11-21T00:27:42;17.17;;;8.17;;
19127;SDS011;9696;53.686;10.094;2023-11-21T00:30:14;19.87;;;8.20;;
19127;SDS011;9696;53.686;10.094;2023-11-21T00:32:44;15.33;;;7.57;;
19127;SDS011;9696;53.686;10.094;2023-11-21T00:35:13;16.83;;;8.47;;
19127;SDS011;9696;53.686;10.094;2023-11-21T00:37:45;18.10;;;8.40;;
19127;SDS011;9696;53.686;10.094;2023-11-21T00:40:16;20.87;;;7.93;;
19127;SDS011;9696;53.686;10.094;2023-11-21T00:42:48;16.83;;;8.27;;
19127;SDS011;9696;53.686;10.094;2023-11-21T00:45:19;15.93;;;8.53;;
19127;SDS011;9696;53.686;10.094;2023-11-21T00:47:48;17.97;;;7.87;;
19127;SDS011;9696;53.686;10.094;2023-11-21T00:50:17;19.13;;;9.37;;
19127;SDS011;9696;53.686;10.094;2023-11-21T00:52:47;18.87;;;8.83;;
19127;SDS011;9696;53.686;10.094;2023-11-21T00:55:20;15.80;;;8.30;;
19127;SDS011;9696;53.686;10.094;2023-11-21T00:57:50;15.17;;;7.70;;
19127;SDS011;9696;53.686;10.094;2023-11-21T01:00:21;12.23;;;7.03;;
19127;SDS011;9696;53.686;10.094;2023-11-21T01:02:50;14.20;;;7.13;;
19127;SDS011;9696;53.686;10.094;2023-11-21T01:05:20;13.67;;;6.90;;
19127;SDS011;9696;53.686;10.094;2023-11-21T01:07:50;13.33;;;6.60;;
19127;SDS011;9696;53.686;10.094;2023-11-21T01:10:19;15.70;;;7.00;;
19127;SDS011;9696;53.686;10.094;2023-11-21T01:12:48;11.63;;;6.53;;
19127;SDS011;9696;53.686;10.094;2023-11-21T01:15:19;15.67;;;7.23;;
19127;SDS011;9696;53.686;10.094;2023-11-21T01:20:45;11.77;;;6.37;;
19127;SDS011;9696;53.686;10.094;2023-11-21T01:23:15;14.23;;;6.70;;
19127;SDS011;9696;53.686;10.094;2023-11-21T01:30:11;10.33;;;5.97;;
19127;SDS011;9696;53.686;10.094;2023-11-21T01:32:43;13.40;;;7.00;;
19127;SDS011;9696;53.686;10.094;2023-11-21T01:35:13;18.73;;;7.17;;
19127;SDS011;9696;53.686;10.094;2023-11-21T01:37:42;14.53;;;7.80;;
19127;SDS011;9696;53.686;10.094;2023-11-21T01:40:14;13.37;;;7.13;;
19127;SDS011;9696;53.686;10.094;2023-11-21T01:42:44;11.57;;;6.17;;
19127;SDS011;9696;53.686;10.094;2023-11-21T01:49:47;12.20;;;5.83;;
19127;SDS011;9696;53.686;10.094;2023-11-21T01:52:17;9.90;;;4.87;;
19127;SDS011;9696;53.686;10.094;2023-11-21T01:54:46;11.73;;;4.63;;
19127;SDS011;9696;53.686;10.094;2023-11-21T02:01:36;8.87;;;4.77;;
19127;SDS011;9696;53.686;10.094;2023-11-21T02:08:34;7.97;;;4.23;;
19127;SDS011;9696;53.686;10.094;2023-11-21T02:14:16;9.60;;;4.80;;
19127;SDS011;9696;53.686;10.094;2023-11-21T02:16:51;12.17;;;5.27;;
19127;SDS011;9696;53.686;10.094;2023-11-21T02:22:33;12.43;;;4.47;;
19127;SDS011;9696;53.686;10.094;2023-11-21T02:25:53;7.53;;;3.87;;
19127;SDS011;9696;53.686;10.094;2023-11-21T02:28:25;6.20;;;4.20;;
19127;SDS011;9696;53.686;10.094;2023-11-21T02:30:54;6.90;;;4.17;;
19127;SDS011;9696;53.686;10.094;2023-11-21T02:33:27;6.37;;;4.03;;
19127;SDS011;9696;53.686;10.094;2023-11-21T02:35:56;8.87;;;3.80;;
19127;SDS011;9696;53.686;10.094;2023-11-21T02:41:23;9.30;;;4.07;;
19127;SDS011;9696;53.686;10.094;2023-11-21T02:46:51;5.93;;;3.80;;
19127;SDS011;9696;53.686;10.094;2023-11-21T02:52:51;6.57;;;4.13;;
19127;SDS011;9696;53.686;10.094;2023-11-21T02:55:20;9.97;;;5.00;;
19127;SDS011;9696;53.686;10.094;2023-11-21T02:57:54;8.43;;;4.93;;
19127;SDS011;9696;53.686;10.094;2023-11-21T03:00:25;8.57;;;5.00;;
19127;SDS011;9696;53.686;10.094;2023-11-21T03:02:55;8.60;;;4.90;;
19127;SDS011;9696;53.686;10.094;2023-11-21T03:05:25;14.47;;;5.87;;
19127;SDS011;9696;53.686;10.094;2023-11-21T03:08:03;10.63;;;5.33;;
19127;SDS011;9696;53.686;10.094;2023-11-21T03:10:33;15.50;;;6.20;;
19127;SDS011;9696;53.686;10.094;2023-11-21T03:21:21;11.00;;;5.60;;
19127;SDS011;9696;53.686;10.094;2023-11-21T03:23:52;10.47;;;5.53;;
19127;SDS011;9696;53.686;10.094;2023-11-21T03:26:23;10.33;;;5.50;;
19127;SDS011;9696;53.686;10.094;2023-11-21T03:28:53;11.43;;;5.97;;
19127;SDS011;9696;53.686;10.094;2023-11-21T03:31:23;11.53;;;5.30;;
19127;SDS011;9696;53.686;10.094;2023-11-21T03:33:56;8.83;;;5.87;;
19127;SDS011;9696;53.686;10.094;2023-11-21T03:36:27;7.10;;;4.30;;
19127;SDS011;9696;53.686;10.094;2023-11-21T03:41:57;7.40;;;4.90;;
19127;SDS011;9696;53.686;10.094;2023-11-21T03:47:23;8.70;;;5.50;;
19127;SDS011;9696;53.686;10.094;2023-11-21T03:49:54;9.20;;;5.37;;
19127;SDS011;9696;53.686;10.094;2023-11-21T03:55:21;12.83;;;6.03;;
19127;SDS011;9696;53.686;10.094;2023-11-21T03:58:07;8.83;;;5.73;;
19127;SDS011;9696;53.686;10.094;2023-11-21T04:00:36;9.00;;;5.37;;
19127;SDS011;9696;53.686;10.094;2023-11-21T04:03:06;14.23;;;6.07;;
19127;SDS011;9696;53.686;10.094;2023-11-21T04:05:41;10.17;;;5.83;;
19127;SDS011;9696;53.686;10.094;2023-11-21T04:08:12;9.80;;;5.43;;
19127;SDS011;9696;53.686;10.094;2023-11-21T04:10:42;10.27;;;5.93;;
19127;SDS011;9696;53.686;10.094;2023-11-21T04:13:11;11.27;;;5.10;;
19127;SDS011;9696;53.686;10.094;2023-11-21T04:20:04;9.50;;;5.47;;
19127;SDS011;9696;53.686;10.094;2023-11-21T04:22:37;8.50;;;4.90;;
19127;SDS011;9696;53.686;10.094;2023-11-21T04:25:13;11.07;;;5.73;;
19127;SDS011;9696;53.686;10.094;2023-11-21T04:27:44;10.30;;;4.87;;
19127;SDS011;9696;53.686;10.094;2023-11-21T04:30:13;10.83;;;5.77;;
19127;SDS011;9696;53.686;10.094;2023-11-21T04:32:45;7.63;;;4.70;;
19127;SDS011;9696;53.686;10.094;2023-11-21T04:38:10;13.47;;;5.50;;
19127;SDS011;9696;53.686;10.094;2023-11-21T04:40:41;7.90;;;5.17;;
19127;SDS011;9696;53.686;10.094;2023-11-21T04:43:11;12.70;;;5.00;;
19127;SDS011;9696;53.686;10.094;2023-11-21T04:45:40;6.60;;;4.53;;
19127;SDS011;9696;53.686;10.094;2023-11-21T04:48:12;8.10;;;4.23;;
19127;SDS011;9696;53.686;10.094;2023-11-21T04:50:42;9.57;;;4.97;;
19127;SDS011;9696;53.686;10.094;2023-11-21T04:53:11;10.00;;;5.07;;
19127;SDS011;9696;53.686;10.094;2023-11-21T04:55:42;8.33;;;5.07;;
19127;SDS011;9696;53.686;10.094;2023-11-21T04:58:12;11.13;;;4.47;;
19127;SDS011;9696;53.686;10.094;2023-11-21T05:00:42;15.83;;;5.07;;
19127;SDS011;9696;53.686;10.094;2023-11-21T05:03:11;9.00;;;5.23;;
19127;SDS011;9696;53.686;10.094;2023-11-21T05:05:41;10.60;;;4.90;;
19127;SDS011;9696;53.686;10.094;2023-11-21T05:08:10;8.27;;;4.73;;
19127;SDS011;9696;53.686;10.094;2023-11-21T05:10:42;8.57;;;5.03;;
19127;SDS011;9696;53.686;10.094;2023-11-21T05:13:13;8.83;;;5.23;;
19127;SDS011;9696;53.686;10.094;2023-11-21T05:15:44;8.47;;;4.80;;
19127;SDS011;9696;53.686;10.094;2023-11-21T05:18:14;10.43;;;4.93;;
19127;SDS011;9696;53.686;10.094;2023-11-21T05:20:45;10.77;;;5.20;;
19127;SDS011;9696;53.686;10.094;2023-11-21T05:23:14;9.37;;;5.33;;
19127;SDS011;9696;53.686;10.094;2023-11-21T05:25:45;11.53;;;5.83;;
19127;SDS011;9696;53.686;10.094;2023-11-21T05:28:14;10.87;;;5.57;;
19127;SDS011;9696;53.686;10.094;2023-11-21T05:30:44;8.87;;;5.13;;
19127;SDS011;9696;53.686;10.094;2023-11-21T05:33:13;8.90;;;4.80;;
19127;SDS011;9696;53.686;10.094;2023-11-21T05:35:43;8.70;;;5.17;;
19127;SDS011;9696;53.686;10.094;2023-11-21T05:38:12;9.00;;;5.20;;
19127;SDS011;9696;53.686;10.094;2023-11-21T05:43:30;10.43;;;5.90;;
19127;SDS011;9696;53.686;10.094;2023-11-21T05:46:02;10.23;;;5.10;;
19127;SDS011;9696;53.686;10.094;2023-11-21T05:48:34;7.80;;;4.70;;
19127;SDS011;9696;53.686;10.094;2023-11-21T05:51:06;8.93;;;4.73;;
19127;SDS011;9696;53.686;10.094;2023-11-21T05:53:35;8.40;;;5.33;;
19127;SDS011;9696;53.686;10.094;2023-11-21T05:56:07;10.77;;;5.27;;
19127;SDS011;9696;53.686;10.094;2023-11-21T05:58:36;8.67;;;5.47;;
19127;SDS011;9696;53.686;10.094;2023-11-21T06:01:06;8.97;;;5.23;;
19127;SDS011;9696;53.686;10.094;2023-11-21T06:03:45;11.43;;;5.50;;
19127;SDS011;9696;53.686;10.094;2023-11-21T06:06:15;10.47;;;6.20;;
19127;SDS011;9696;53.686;10.094;2023-11-21T06:08:50;9.57;;;5.83;;
19127;SDS011;9696;53.686;10.094;2023-11-21T06:11:29;10.17;;;5.10;;
19127;SDS011;9696;53.686;10.094;2023-11-21T06:14:06;9.43;;;5.47;;
19127;SDS011;9696;53.686;10.094;2023-11-21T06:16:43;9.93;;;5.57;;
19127;SDS011;9696;53.686;10.094;2023-11-21T06:19:17;14.33;;;5.77;;
19127;SDS011;9696;53.686;10.094;2023-11-21T06:21:46;7.40;;;4.87;;
19127;SDS011;9696;53.686;10.094;2023-11-21T06:24:16;8.70;;;4.90;;
19127;SDS011;9696;53.686;10.094;2023-11-21T06:26:46;9.30;;;4.37;;
19127;SDS011;9696;53.686;10.094;2023-11-21T06:29:16;10.80;;;5.30;;
19127;SDS011;9696;53.686;10.094;2023-11-21T06:31:45;9.73;;;5.17;;
19127;SDS011;9696;53.686;10.094;2023-11-21T06:34:16;12.90;;;6.10;;
19127;SDS011;9696;53.686;10.094;2023-11-21T06:36:45;8.67;;;5.30;;
19127;SDS011;9696;53.686;10.094;2023-11-21T06:39:15;8.43;;;4.93;;
19127;SDS011;9696;53.686;10.094;2023-11-21T06:41:44;8.13;;;4.50;;
19127;SDS011;9696;53.686;10.094;2023-11-21T06:44:15;8.27;;;4.73;;
19127;SDS011;9696;53.686;10.094;2023-11-21T06:46:44;9.33;;;5.37;;
19127;SDS011;9696;53.686;10.094;2023-11-21T06:49:16;8.53;;;3.90;;
19127;SDS011;9696;53.686;10.094;2023-11-21T06:51:45;7.57;;;4.97;;
19127;SDS011;9696;53.686;10.094;2023-11-21T06:54:16;8.17;;;4.47;;
19127;SDS011;9696;53.686;10.094;2023-11-21T06:56:49;8.03;;;4.83;;
19127;SDS011;9696;53.686;10.094;2023-11-21T06:59:20;12.00;;;4.73;;
19127;SDS011;9696;53.686;10.094;2023-11-21T07:01:56;5.67;;;3.90;;
19127;SDS011;9696;53.686;10.094;2023-11-21T07:04:26;7.07;;;4.37;;
19127;SDS011;9696;53.686;10.094;2023-11-21T07:06:55;7.73;;;4.17;;
19127;SDS011;9696;53.686;10.094;2023-11-21T07:09:25;7.70;;;4.83;;
19127;SDS011;9696;53.686;10.094;2023-11-21T07:12:06;5.30;;;3.90;;
19127;SDS011;9696;53.686;10.094;2023-11-21T07:14:36;11.03;;;4.27;;
19127;SDS011;9696;53.686;10.094;2023-11-21T07:17:08;7.57;;;4.57;;
19127;SDS011;9696;53.686;10.094;2023-11-21T07:19:37;6.23;;;4.10;;
19127;SDS011;9696;53.686;10.094;2023-11-21T07:22:16;8.63;;;4.23;;
19127;SDS011;9696;53.686;10.094;2023-11-21T07:24:48;7.83;;;4.13;;
19127;SDS011;9696;53.686;10.094;2023-11-21T07:27:34;7.80;;;4.53;;
19127;SDS011;9696;53.686;10.094;2023-11-21T07:30:08;5.73;;;3.93;;
19127;SDS011;9696;53.686;10.094;2023-11-21T07:32:38;9.33;;;4.53;;
19127;SDS011;9696;53.686;10.094;2023-11-21T07:35:09;8.50;;;4.50;;
19127;SDS011;9696;53.686;10.094;2023-11-21T07:37:38;7.00;;;4.30;;
19127;SDS011;9696;53.686;10.094;2023-11-21T07:40:11;6.73;;;4.57;;
19127;SDS011;9696;53.686;10.094;2023-11-21T07:42:44;10.50;;;5.03;;
19127;SDS011;9696;53.686;10.094;2023-11-21T07:45:13;13.70;;;4.53;;
19127;SDS011;9696;53.686;10.094;2023-11-21T07:47:42;10.17;;;4.40;;
19127;SDS011;9696;53.686;10.094;2023-11-21T07:50:13;7.80;;;4.73;;
19127;SDS011;9696;53.686;10.094;2023-11-21T07:52:43;9.20;;;4.77;;
19127;SDS011;9696;53.686;10.094;2023-11-21T07:55:13;7.40;;;4.60;;
19127;SDS011;9696;53.686;10.094;2023-11-21T07:57:45;8.33;;;4.23;;
19127;SDS011;9696;53.686;10.094;2023-11-21T08:00:15;9.03;;;4.57;;
19127;SDS011;9696;53.686;10.094;2023-11-21T08:02:45;10.67;;;4.97;;
19127;SDS011;9696;53.686;10.094;2023-11-21T08:05:14;7.07;;;4.67;;
19127;SDS011;9696;53.686;10.094;2023-11-21T08:07:54;6.60;;;4.57;;
19127;SDS011;9696;53.686;10.094;2023-11-21T08:10:24;5.77;;;4.20;;
19127;SDS011;9696;53.686;10.094;2023-11-21T08:12:57;10.27;;;4.20;;
19127;SDS011;9696;53.686;10.094;2023-11-21T08:15:27;7.17;;;4.30;;
19127;SDS011;9696;53.686;10.094;2023-11-21T08:17:57;6.60;;;4.37;;
19127;SDS011;9696;53.686;10.094;2023-11-21T08:20:28;9.50;;;4.13;;
19127;SDS011;9696;53.686;10.094;2023-11-21T08:22:57;7.07;;;3.97;;
19127;SDS011;9696;53.686;10.094;2023-11-21T08:25:30;9.90;;;4.53;;
19127;SDS011;9696;53.686;10.094;2023-11-21T08:28:03;7.47;;;4.50;;
19127;SDS011;9696;53.686;10.094;2023-11-21T08:30:32;7.60;;;4.23;;
19127;SDS011;9696;53.686;10.094;2023-11-21T08:33:02;6.50;;;3.57;;
19127;SDS011;9696;53.686;10.094;2023-11-21T08:35:32;7.83;;;4.47;;
19127;SDS011;9696;53.686;10.094;2023-11-21T08:38:03;5.57;;;3.63;;
19127;SDS011;9696;53.686;10.094;2023-11-21T08:40:36;10.27;;;3.57;;
19127;SDS011;9696;53.686;10.094;2023-11-21T08:43:07;5.77;;;3.40;;
19127;SDS011;9696;53.686;10.094;2023-11-21T08:45:39;6.10;;;3.57;;
19127;SDS011;9696;53.686;10.094;2023-11-21T08:48:08;3.90;;;2.80;;
19127;SDS011;9696;53.686;10.094;2023-11-21T08:50:39;7.23;;;2.90;;
19127;SDS011;9696;53.686;10.094;2023-11-21T08:53:08;3.47;;;2.13;;
19127;SDS011;9696;53.686;10.094;2023-11-21T08:55:38;3.67;;;2.00;;
19127;SDS011;9696;53.686;10.094;2023-11-21T08:58:09;3.90;;;2.37;;
19127;SDS011;9696;53.686;10.094;2023-11-21T09:00:39;3.50;;;2.30;;
19127;SDS011;9696;53.686;10.094;2023-11-21T09:03:09;5.80;;;1.93;;
19127;SDS011;9696;53.686;10.094;2023-11-21T09:05:39;3.07;;;1.90;;
19127;SDS011;9696;53.686;10.094;2023-11-21T09:08:09;3.07;;;2.17;;
19127;SDS011;9696;53.686;10.094;2023-11-21T09:10:39;2.63;;;1.90;;
19127;SDS011;9696;53.686;10.094;2023-11-21T09:13:11;10.43;;;2.20;;
19127;SDS011;9696;53.686;10.094;2023-11-21T09:15:43;2.57;;;1.93;;
19127;SDS011;9696;53.686;10.094;2023-11-21T09:18:16;5.43;;;2.33;;
19127;SDS011;9696;53.686;10.094;2023-11-21T09:20:46;3.87;;;2.40;;
19127;SDS011;9696;53.686;10.094;2023-11-21T09:23:16;3.77;;;2.57;;
19127;SDS011;9696;53.686;10.094;2023-11-21T09:25:46;4.13;;;2.30;;
19127;SDS011;9696;53.686;10.094;2023-11-21T09:28:21;3.70;;;2.13;;
19127;SDS011;9696;53.686;10.094;2023-11-21T09:30:54;5.10;;;2.60;;
19127;SDS011;9696;53.686;10.094;2023-11-21T09:33:25;4.90;;;2.50;;
19127;SDS011;9696;53.686;10.094;2023-11-21T09:35:55;3.90;;;2.60;;
19127;SDS011;9696;53.686;10.094;2023-11-21T09:38:26;4.57;;;2.40;;
19127;SDS011;9696;53.686;10.094;2023-11-21T09:40:56;3.93;;;2.20;;
19127;SDS011;9696;53.686;10.094;2023-11-21T09:43:29;4.30;;;2.70;;
19127;SDS011;9696;53.686;10.094;2023-11-21T09:46:01;5.20;;;2.73;;
19127;SDS011;9696;53.686;10.094;2023-11-21T09:48:38;3.73;;;2.30;;
19127;SDS011;9696;53.686;10.094;2023-11-21T09:51:13;4.33;;;2.40;;
19127;SDS011;9696;53.686;10.094;2023-11-21T09:53:44;3.13;;;2.27;;
19127;SDS011;9696;53.686;10.094;2023-11-21T09:56:17;5.67;;;2.37;;
19127;SDS011;9696;53.686;10.094;2023-11-21T09:58:53;4.80;;;2.33;;
19127;SDS011;9696;53.686;10.094;2023-11-21T10:01:24;3.67;;;2.10;;
19127;SDS011;9696;53.686;10.094;2023-11-21T10:03:55;5.93;;;2.10;;
19127;SDS011;9696;53.686;10.094;2023-11-21T10:06:27;2.47;;;1.70;;
19127;SDS011;9696;53.686;10.094;2023-11-21T10:09:00;2.53;;;1.70;;
19127;SDS011;9696;53.686;10.094;2023-11-21T10:11:31;7.10;;;2.00;;
19127;SDS011;9696;53.686;10.094;2023-11-21T10:14:02;3.17;;;1.57;;
19127;SDS011;9696;53.686;10.094;2023-11-21T10:16:32;4.37;;;1.70;;
19127;SDS011;9696;53.686;10.094;2023-11-21T10:19:02;2.60;;;1.33;;
19127;SDS011;9696;53.686;10.094;2023-11-21T10:21:38;2.73;;;1.47;;
19127;SDS011;9696;53.686;10.094;2023-11-21T10:24:16;2.57;;;1.93;;
19127;SDS011;9696;53.686;10.094;2023-11-21T10:26:46;2.40;;;1.70;;
19127;SDS011;9696;53.686;10.094;2023-11-21T10:29:21;2.77;;;1.87;;
19127;SDS011;9696;53.686;10.094;2023-11-21T10:31:51;3.13;;;1.90;;
19127;SDS011;9696;53.686;10.094;2023-11-21T10:34:24;4.93;;;2.03;;
19127;SDS011;9696;53.686;10.094;2023-11-21T10:36:55;5.90;;;2.07;;
19127;SDS011;9696;53.686;10.094;2023-11-21T10:39:25;5.80;;;2.03;;
19127;SDS011;9696;53.686;10.094;2023-11-21T10:41:57;6.43;;;2.17;;
19127;SDS011;9696;53.686;10.094;2023-11-21T10:44:31;3.60;;;2.00;;
19127;SDS011;9696;53.686;10.094;2023-11-21T10:47:00;4.70;;;2.10;;
19127;SDS011;9696;53.686;10.094;2023-11-21T10:49:33;4.03;;;2.40;;
19127;SDS011;9696;53.686;10.094;2023-11-21T10:52:02;2.67;;;2.07;;
19127;SDS011;9696;53.686;10.094;2023-11-21T10:54:33;3.37;;;2.30;;
19127;SDS011;9696;53.686;10.094;2023-11-21T10:57:09;5.90;;;2.17;;
19127;SDS011;9696;53.686;10.094;2023-11-21T10:59:43;5.63;;;2.30;;
19127;SDS011;9696;53.686;10.094;2023-11-21T11:02:18;4.17;;;2.27;;
19127;SDS011;9696;53.686;10.094;2023-11-21T11:04:56;2.13;;;1.73;;
19127;SDS011;9696;53.686;10.094;2023-11-21T11:10:19;3.57;;;1.80;;
19127;SDS011;9696;53.686;10.094;2023-11-21T11:15:31;7.57;;;2.17;;
19127;SDS011;9696;53.686;10.094;2023-11-21T11:21:03;2.57;;;1.90;;
19127;SDS011;9696;53.686;10.094;2023-11-21T11:23:52;3.73;;;2.40;;
19127;SDS011;9696;53.686;10.094;2023-11-21T11:26:37;7.93;;;2.73;;
19127;SDS011;9696;53.686;10.094;2023-11-21T11:29:18;4.00;;;2.30;;
19127;SDS011;9696;53.686;10.094;2023-11-21T11:32:03;3.80;;;2.17;;
19127;SDS011;9696;53.686;10.094;2023-11-21T11:34:44;5.27;;;2.33;;
19127;SDS011;9696;53.686;10.094;2023-11-21T11:37:35;2.83;;;2.20;;
19127;SDS011;9696;53.686;10.094;2023-11-21T11:40:07;2.10;;;1.67;;
19127;SDS011;9696;53.686;10.094;2023-11-21T11:45:31;4.20;;;2.20;;
19127;SDS011;9696;53.686;10.094;2023-11-21T11:48:05;7.90;;;2.50;;
19127;SDS011;9696;53.686;10.094;2023-11-21T11:50:34;5.03;;;2.20;;
19127;SDS011;9696;53.686;10.094;2023-11-21T11:53:14;5.97;;;2.63;;
19127;SDS011;9696;53.686;10.094;2023-11-21T11:55:46;6.47;;;2.37;;
19127;SDS011;9696;53.686;10.094;2023-11-21T11:58:32;5.27;;;1.80;;
19127;SDS011;9696;53.686;10.094;2023-11-21T12:01:07;3.80;;;2.63;;
19127;SDS011;9696;53.686;10.094;2023-11-21T12:03:40;3.20;;;1.83;;
19127;SDS011;9696;53.686;10.094;2023-11-21T12:06:13;3.97;;;2.43;;
19127;SDS011;9696;53.686;10.094;2023-11-21T12:08:43;4.63;;;2.73;;
19127;SDS011;9696;53.686;10.094;2023-11-21T12:11:14;3.87;;;2.63;;
19127;SDS011;9696;53.686;10.094;2023-11-21T12:13:46;3.07;;;2.23;;
19127;SDS011;9696;53.686;10.094;2023-11-21T12:16:20;12.17;;;3.00;;
19127;SDS011;9696;53.686;10.094;2023-11-21T12:19:13;3.13;;;2.47;;
19127;SDS011;9696;53.686;10.094;2023-11-21T12:21:43;6.80;;;2.70;;
19127;SDS011;9696;53.686;10.094;2023-11-21T12:24:12;4.83;;;2.40;;
19127;SDS011;9696;53.686;10.094;2023-11-21T12:26:43;9.27;;;2.97;;
19127;SDS011;9696;53.686;10.094;2023-11-21T12:29:15;4.17;;;2.80;;
19127;SDS011;9696;53.686;10.094;2023-11-21T12:31:45;8.23;;;2.77;;
19127;SDS011;9696;53.686;10.094;2023-11-21T12:34:18;5.93;;;2.87;;
19127;SDS011;9696;53.686;10.094;2023-11-21T12:36:49;2.40;;;2.13;;
19127;SDS011;9696;53.686;10.094;2023-11-21T12:39:22;3.53;;;2.60;;
19127;SDS011;9696;53.686;10.094;2023-11-21T12:41:52;4.93;;;2.40;;
19127;SDS011;9696;53.686;10.094;2023-11-21T12:44:22;6.43;;;2.07;;
19127;SDS011;9696;53.686;10.094;2023-11-21T12:46:52;4.17;;;2.37;;
19127;SDS011;9696;53.686;10.094;2023-11-21T12:49:24;2.73;;;2.23;;
19127;SDS011;9696;53.686;10.094;2023-11-21T12:52:03;5.17;;;2.30;;
19127;SDS011;9696;53.686;10.094;2023-11-21T12:54:35;3.63;;;2.30;;
19127;SDS011;9696;53.686;10.094;2023-11-21T12:57:04;2.57;;;1.97;;
19127;SDS011;9696;53.686;10.094;2023-11-21T12:59:38;4.23;;;2.17;;
19127;SDS011;9696;53.686;10.094;2023-11-21T13:02:09;2.77;;;1.87;;
19127;SDS011;9696;53.686;10.094;2023-11-21T13:04:44;4.67;;;2.50;;
19127;SDS011;9696;53.686;10.094;2023-11-21T13:07:21;3.10;;;2.03;;
19127;SDS011;9696;53.686;10.094;2023-11-21T13:09:53;3.47;;;1.80;;
19127;SDS011;9696;53.686;10.094;2023-11-21T13:12:23;3.30;;;2.07;;
19127;SDS011;9696;53.686;10.094;2023-11-21T13:14:53;3.47;;;1.90;;
19127;SDS011;9696;53.686;10.094;2023-11-21T13:17:22;3.30;;;1.77;;
19127;SDS011;9696;53.686;10.094;2023-11-21T13:19:54;4.47;;;2.00;;
19127;SDS011;9696;53.686;10.094;2023-11-21T13:22:24;3.03;;;1.80;;
19127;SDS011;9696;53.686;10.094;2023-11-21T13:24:56;4.10;;;2.03;;
19127;SDS011;9696;53.686;10.094;2023-11-21T13:27:27;2.40;;;1.77;;
19127;SDS011;9696;53.686;10.094;2023-11-21T13:29:59;3.40;;;2.00;;
19127;SDS011;9696;53.686;10.094;2023-11-21T13:32:30;4.63;;;2.40;;
19127;SDS011;9696;53.686;10.094;2023-11-21T13:35:02;2.80;;;1.70;;
19127;SDS011;9696;53.686;10.094;2023-11-21T13:37:44;4.37;;;2.17;;
19127;SDS011;9696;53.686;10.094;2023-11-21T13:40:16;7.23;;;2.00;;
19127;SDS011;9696;53.686;10.094;2023-11-21T13:42:49;4.30;;;2.17;;
19127;SDS011;9696;53.686;10.094;2023-11-21T13:45:21;4.20;;;2.40;;
19127;SDS011;9696;53.686;10.094;2023-11-21T13:47:52;4.47;;;2.80;;
19127;SDS011;9696;53.686;10.094;2023-11-21T13:50:28;2.17;;;1.90;;
19127;SDS011;9696;53.686;10.094;2023-11-21T13:53:00;4.37;;;2.40;;
19127;SDS011;9696;53.686;10.094;2023-11-21T13:55:37;5.80;;;2.37;;
19127;SDS011;9696;53.686;10.094;2023-11-21T13:58:08;4.40;;;2.37;;
19127;SDS011;9696;53.686;10.094;2023-11-21T14:00:43;4.33;;;2.00;;
19127;SDS011;9696;53.686;10.094;2023-11-21T14:03:40;2.93;;;1.83;;
19127;SDS011;9696;53.686;10.094;2023-11-21T14:06:22;2.23;;;1.53;;
19127;SDS011;9696;53.686;10.094;2023-11-21T14:08:59;5.10;;;2.00;;
19127;SDS011;9696;53.686;10.094;2023-11-21T14:11:34;5.37;;;2.17;;
19127;SDS011;9696;53.686;10.094;2023-11-21T14:14:14;5.33;;;2.23;;
19127;SDS011;9696;53.686;10.094;2023-11-21T14:16:46;2.13;;;1.60;;
19127;SDS011;9696;53.686;10.094;2023-11-21T14:19:17;5.30;;;2.27;;
19127;SDS011;9696;53.686;10.094;2023-11-21T14:21:49;5.33;;;1.70;;
19127;SDS011;9696;53.686;10.094;2023-11-21T14:24:19;1.30;;;1.20;;
19127;SDS011;9696;53.686;10.094;2023-11-21T14:26:52;2.17;;;1.60;;
19127;SDS011;9696;53.686;10.094;2023-11-21T14:29:22;3.73;;;1.93;;
19127;SDS011;9696;53.686;10.094;2023-11-21T14:31:52;1.67;;;1.27;;
19127;SDS011;9696;53.686;10.094;2023-11-21T14:34:24;1.63;;;1.10;;
19127;SDS011;9696;53.686;10.094;2023-11-21T14:36:55;1.53;;;1.37;;
19127;SDS011;9696;53.686;10.094;2023-11-21T14:39:25;2.47;;;1.70;;
19127;SDS011;9696;53.686;10.094;2023-11-21T14:41:56;8.77;;;4.10;;
19127;SDS011;9696;53.686;10.094;2023-11-21T14:44:29;4.23;;;2.37;;
19127;SDS011;9696;53.686;10.094;2023-11-21T14:47:08;2.83;;;1.90;;
19127;SDS011;9696;53.686;10.094;2023-11-21T14:49:42;2.43;;;1.53;;
19127;SDS011;9696;53.686;10.094;2023-11-21T14:52:31;1.83;;;1.50;;
19127;SDS011;9696;53.686;10.094;2023-11-21T14:55:08;4.13;;;2.30;;
19127;SDS011;9696;53.686;10.094;2023-11-21T14:57:48;1.70;;;1.30;;
19127;SDS011;9696;53.686;10.094;2023-11-21T15:00:33;5.97;;;1.63;;
19127;SDS011;9696;53.686;10.094;2023-11-21T15:03:08;3.90;;;2.07;;
19127;SDS011;9696;53.686;10.094;2023-11-21T15:05:50;2.47;;;1.87;;
19127;SDS011;9696;53.686;10.094;2023-11-21T15:08:20;5.13;;;1.60;;
19127;SDS011;9696;53.686;10.094;2023-11-21T15:10:56;2.13;;;1.50;;
19127;SDS011;9696;53.686;10.094;2023-11-21T15:13:24;2.97;;;1.67;;
19127;SDS011;9696;53.686;10.094;2023-11-21T15:15:56;2.67;;;1.60;;
19127;SDS011;9696;53.686;10.094;2023-11-21T15:18:36;3.10;;;1.80;;
19127;SDS011;9696;53.686;10.094;2023-11-21T15:21:06;2.63;;;1.63;;
19127;SDS011;9696;53.686;10.094;2023-11-21T15:23:42;1.63;;;1.30;;
19127;SDS011;9696;53.686;10.094;2023-11-21T15:26:13;2.30;;;1.77;;
19127;SDS011;9696;53.686;10.094;2023-11-21T15:28:44;2.27;;;1.67;;
19127;SDS011;9696;53.686;10.094;2023-11-21T15:31:14;7.57;;;1.87;;
19127;SDS011;9696;53.686;10.094;2023-11-21T15:33:48;4.57;;;1.70;;
19127;SDS011;9696;53.686;10.094;2023-11-21T15:36:18;3.63;;;1.60;;
19127;SDS011;9696;53.686;10.094;2023-11-21T15:38:49;4.60;;;2.03;;
19127;SDS011;9696;53.686;10.094;2023-11-21T15:41:22;2.93;;;1.60;;
19127;SDS011;9696;53.686;10.094;2023-11-21T15:43:54;3.20;;;1.87;;
19127;SDS011;9696;53.686;10.094;2023-11-21T15:46:31;4.77;;;1.93;;
19127;SDS011;9696;53.686;10.094;2023-11-21T15:49:07;4.23;;;1.73;;
19127;SDS011;9696;53.686;10.094;2023-11-21T15:51:46;2.63;;;1.77;;
19127;SDS011;9696;53.686;10.094;2023-11-21T15:54:30;4.17;;;2.50;;
19127;SDS011;9696;53.686;10.094;2023-11-21T15:57:22;2.40;;;1.67;;
19127;SDS011;9696;53.686;10.094;2023-11-21T15:59:56;4.10;;;2.27;;
19127;SDS011;9696;53.686;10.094;2023-11-21T16:02:50;3.17;;;1.90;;
19127;SDS011;9696;53.686;10.094;2023-11-21T16:05:25;3.47;;;2.10;;
19127;SDS011;9696;53.686;10.094;2023-11-21T16:08:00;4.53;;;1.80;;
19127;SDS011;9696;53.686;10.094;2023-11-21T16:10:39;6.63;;;2.07;;
19127;SDS011;9696;53.686;10.094;2023-11-21T16:13:14;6.63;;;3.20;;
19127;SDS011;9696;53.686;10.094;2023-11-21T16:15:59;8.93;;;4.17;;
19127;SDS011;9696;53.686;10.094;2023-11-21T16:18:30;6.90;;;4.37;;
19127;SDS011;9696;53.686;10.094;2023-11-21T16:21:00;6.87;;;3.10;;
19127;SDS011;9696;53.686;10.094;2023-11-21T16:23:29;5.20;;;2.53;;
19127;SDS011;9696;53.686;10.094;2023-11-21T16:26:00;3.87;;;2.63;;
19127;SDS011;9696;53.686;10.094;2023-11-21T16:28:31;3.67;;;2.30;;
19127;SDS011;9696;53.686;10.094;2023-11-21T16:31:04;5.13;;;2.47;;
19127;SDS011;9696;53.686;10.094;2023-11-21T16:33:34;4.23;;;2.43;;